Anniston Metropolitan Airport
KANB : now visible

Airfield :











YOU CAN JOIN US ON...

 
LOGIN :

Register | Disclaimer

   EN    FR    IT 

 









Legend :    VFR   Marginal VFR   IFR   Intensive IFR   Very Intensive IFR
Visi :
Ceiling :
>= 8 km
>= 3000ft
5 to 8 km
1000 to 3000 ft
1500m to 5 km
500 to 1000 ft
800 to 1500m
200 to 500 ft
< 800m
< 200 ft
Symbols :   Thunderstorms  Fog  Heavy snow  Heavy precipitations  Wind > 20 kt






- Airport Elevation : 612 ft
- IATA code : ANB


KANB - Anniston Metropolitan

CURRENT METAR :
  • 160753Z AUTO 00000KT 10SM CLR 10/04 A2993 RMK AO2 SLP132 T01000044

EXPIRED METARs :
  • 160653Z AUTO 00000KT 10SM CLR 11/05 A2994 RMK AO2 SLP135 T01110050
  • 160553Z AUTO 00000KT 10SM CLR 12/04 A2996 RMK AO2 SLP142 T01170039 10194 20117 402280117 53008

TAF KANB
Valid from the 16 at 06:00 until the 17 at 06:00 UTC


160520Z 1606/1706 03004KT P6SM BKN250
FM161500 VRB04KT P6SM BKN250
PROB30 1703/1706 -SHRA OVC050
KZTL FIR / North America



MET'MAP, your aeronautical weather chart ! - Copyright ORBIFLY December 2007 - Disclaimer

ORBIFLY MET'MAP TEAM :

Programming & Development : Alexandra Zaïnal
Concept & original design : Baudouin d'Aumeries
Assistance for programming : Marc-Olivier Méhu
Technical & hardware support : Manuel Goepfert

Contact : metmap@orbifly.com




SOURCES & CREDITS :

   NOAA       Earth
Advisory